Time;durP1;ratioP1;P1;durP2;ratioP2;P2;SDS_P1;SDS_P2;PMS_P1;PMS_P2;Temp;Humidity;BMP_temperature;BMP_pressure;BME280_temperature;BME280_humidity;BME280_pressure;Samples;Min_cycle;Max_cycle;Signal;HPM_P1;HPM_P2
2023/07/12 04:04:17;;;;;;;2.17;2.00;;;19.50;99.90;;;;;;6115706;23;20452;-69
2023/07/12 04:06:42;;;;;;;1.93;1.83;;;19.50;99.90;;;;;;4973990;28;20455;-70
2023/07/12 04:09:08;;;;;;;2.43;2.23;;;19.50;99.90;;;;;;4958006;28;20176;-70
2023/07/12 04:11:37;;;;;;;2.03;1.83;;;19.60;99.90;;;;;;4975482;28;20570;-69
2023/07/12 04:14:03;;;;;;;2.10;1.93;;;19.60;99.90;;;;;;4974971;28;20411;-70
2023/07/12 04:16:31;;;;;;;2.80;2.20;;;19.60;99.90;;;;;;4975366;28;20422;-69
2023/07/12 04:18:57;;;;;;;3.93;2.20;;;19.70;99.90;;;;;;4956538;28;20390;-70
2023/07/12 04:21:23;;;;;;;2.03;1.80;;;19.80;99.90;;;;;;4955663;28;20736;-70
2023/07/12 04:23:50;;;;;;;2.80;2.60;;;19.80;99.90;;;;;;4955466;29;20173;-70
2023/07/12 04:26:20;;;;;;;1.60;1.50;;;19.80;99.90;;;;;;4955737;29;20495;-69
2023/07/12 04:28:51;;;;;;;1.90;1.63;;;19.90;99.90;;;;;;4955633;29;20409;-70
2023/07/12 04:31:19;;;;;;;1.97;1.87;;;19.90;99.90;;;;;;4955960;28;20404;-70
2023/07/12 04:33:46;;;;;;;1.77;1.67;;;20.00;99.90;;;;;;4955281;28;20402;-70
2023/07/12 04:36:13;;;;;;;2.10;2.00;;;20.00;99.90;;;;;;4954691;28;20483;-69
2023/07/12 04:38:38;;;;;;;1.80;1.70;;;20.10;99.90;;;;;;4955640;29;20400;-69
2023/07/12 04:41:05;;;;;;;2.00;1.90;;;20.10;99.90;;;;;;4952378;28;20526;-70
2023/07/12 04:43:31;;;;;;;1.70;1.60;;;20.20;99.90;;;;;;4974659;28;20210;-70
2023/07/12 04:45:58;;;;;;;2.23;2.03;;;20.30;99.90;;;;;;4974503;28;20463;-69
2023/07/12 04:48:24;;;;;;;2.40;2.20;;;20.50;99.90;;;;;;4974612;28;20497;-69
2023/07/12 04:50:51;;;;;;;1.83;1.73;;;20.70;99.90;;;;;;4974428;28;20489;-70
2023/07/12 04:53:17;;;;;;;1.77;1.67;;;21.00;99.90;;;;;;4974165;28;20407;-69
2023/07/12 04:55:42;;;;;;;2.50;2.30;;;21.20;99.90;;;;;;4954781;28;20422;-70
2023/07/12 04:58:08;;;;;;;2.43;2.13;;;21.40;99.90;;;;;;4974553;28;20176;-69
2023/07/12 05:00:34;;;;;;;1.90;1.60;;;21.50;99.90;;;;;;4973933;28;20189;-68
2023/07/12 05:03:00;;;;;;;1.63;1.53;;;21.70;99.90;;;;;;4974264;28;20195;-66
2023/07/12 05:05:25;;;;;;;2.60;1.90;;;21.80;99.90;;;;;;4972907;28;20223;-69
2023/07/12 05:07:51;;;;;;;5.30;1.90;;;21.90;99.90;;;;;;4974281;28;20194;-69
2023/07/12 05:10:17;;;;;;;1.73;1.63;;;22.00;99.90;;;;;;4974339;28;20237;-70
2023/07/12 05:12:42;;;;;;;2.03;1.87;;;22.00;99.90;;;;;;4968088;28;20603;-69
2023/07/12 05:15:09;;;;;;;1.57;1.47;;;22.00;99.90;;;;;;4957867;28;20436;-70
2023/07/12 05:17:36;;;;;;;2.60;2.10;;;22.00;99.90;;;;;;4958795;29;20265;-69
2023/07/12 05:20:04;;;;;;;2.30;2.20;;;22.00;99.90;;;;;;4967870;28;20485;-68
2023/07/12 05:22:30;;;;;;;1.80;1.70;;;22.10;99.90;;;;;;4972152;28;20415;-68
2023/07/12 05:24:58;;;;;;;2.80;1.50;;;22.10;99.90;;;;;;4964124;28;20467;-69
2023/07/12 05:27:24;;;;;;;2.00;1.90;;;22.20;99.90;;;;;;4971090;28;20241;-69
2023/07/12 05:29:50;;;;;;;2.10;2.00;;;22.20;99.90;;;;;;4978150;28;20409;-71
2023/07/12 05:32:15;;;;;;;1.53;1.43;;;22.30;99.90;;;;;;4978202;28;20409;-67
2023/07/12 05:34:44;;;;;;;2.10;2.00;;;22.50;99.90;;;;;;4976759;28;20209;-69
2023/07/12 05:37:12;;;;;;;2.77;2.17;;;22.60;99.90;;;;;;4968620;28;20188;-71
2023/07/12 05:39:38;;;;;;;1.70;1.60;;;22.70;99.90;;;;;;4976700;28;20401;-67
2023/07/12 05:42:04;;;;;;;3.80;1.90;;;22.80;99.90;;;;;;4977941;28;20423;-67
2023/07/12 05:44:30;;;;;;;1.60;1.50;;;22.90;99.90;;;;;;4977482;28;20729;-66
2023/07/12 05:46:56;;;;;;;1.83;1.73;;;22.90;99.90;;;;;;4973460;28;20423;-70
2023/07/12 05:49:22;;;;;;;2.03;1.83;;;23.00;99.90;;;;;;4977808;28;20549;-68
2023/07/12 05:51:48;;;;;;;2.27;2.07;;;22.90;99.90;;;;;;4973445;28;20427;-72
2023/07/12 05:54:15;;;;;;;2.77;2.53;;;23.00;99.90;;;;;;4964894;28;20614;-72
2023/07/12 05:56:40;;;;;;;4.73;3.93;;;23.10;99.90;;;;;;4977551;28;20421;-71
2023/07/12 05:59:06;;;;;;;3.07;2.63;;;23.10;99.90;;;;;;4977457;28;20908;-72
2023/07/12 06:01:31;;;;;;;2.07;1.97;;;23.20;99.90;;;;;;4977601;28;20187;-72
2023/07/12 06:03:57;;;;;;;2.43;2.27;;;23.30;99.90;;;;;;4977296;28;20176;-73
2023/07/12 06:06:23;;;;;;;4.00;2.60;;;23.40;99.90;;;;;;4977366;28;20222;-73
2023/07/12 06:08:49;;;;;;;2.03;1.80;;;23.50;99.90;;;;;;4976767;28;20347;-73
2023/07/12 06:11:15;;;;;;;1.90;1.80;;;23.60;99.90;;;;;;4977393;28;20172;-72
2023/07/12 06:13:40;;;;;;;2.90;1.93;;;23.70;99.90;;;;;;4976988;28;20389;-73
2023/07/12 06:16:06;;;;;;;3.30;1.83;;;23.80;99.90;;;;;;4977246;28;20211;-73
2023/07/12 06:18:32;;;;;;;2.23;2.10;;;24.00;99.90;;;;;;4977107;28;20235;-74
2023/07/12 06:21:00;;;;;;;2.30;2.20;;;24.10;99.90;;;;;;4977162;28;20593;-74
2023/07/12 06:23:27;;;;;;;2.00;1.90;;;24.20;99.90;;;;;;4976664;28;20168;-74
2023/07/12 06:25:57;;;;;;;2.90;2.20;;;24.30;99.90;;;;;;4976167;28;20446;-73
2023/07/12 06:28:23;;;;;;;1.97;1.87;;;24.30;99.90;;;;;;4977175;28;20389;-73
2023/07/12 06:30:49;;;;;;;2.43;2.23;;;24.40;99.90;;;;;;4976985;28;20410;-69
2023/07/12 06:33:16;;;;;;;2.60;2.40;;;24.40;99.90;;;;;;4976777;28;20922;-68
2023/07/12 06:35:41;;;;;;;1.60;1.50;;;24.40;99.90;;;;;;4976871;28;20433;-69
2023/07/12 06:38:07;;;;;;;2.77;2.30;;;24.50;99.90;;;;;;4977063;28;20390;-69
2023/07/12 06:40:33;;;;;;;2.57;2.00;;;24.60;99.90;;;;;;4976987;28;20267;-69
2023/07/12 06:42:59;;;;;;;2.33;2.17;;;24.80;99.90;;;;;;4976796;28;20185;-69
2023/07/12 06:45:24;;;;;;;2.90;2.70;;;24.90;99.90;;;;;;4976575;28;20220;-67
2023/07/12 06:47:50;;;;;;;2.17;2.03;;;25.10;99.90;;;;;;4976945;28;20404;-68
2023/07/12 06:50:16;;;;;;;2.03;1.93;;;25.40;99.90;;;;;;4976863;28;20307;-68
2023/07/12 06:52:41;;;;;;;1.93;1.83;;;25.70;99.90;;;;;;4976684;28;20218;-72
2023/07/12 06:55:07;;;;;;;2.33;2.20;;;26.00;99.90;;;;;;4976159;28;20196;-68
2023/07/12 06:57:33;;;;;;;2.17;1.90;;;26.30;99.90;;;;;;4976527;28;20193;-70
2023/07/12 07:00:04;;;;;;;2.90;2.20;;;26.50;99.90;;;;;;4976174;28;20445;-69
2023/07/12 07:02:30;;;;;;;2.03;1.87;;;26.50;99.90;;;;;;4976585;28;20391;-75
2023/07/12 07:04:55;;;;;;;2.33;2.20;;;26.60;99.90;;;;;;4975759;28;20444;-74
2023/07/12 07:07:21;;;;;;;1.90;1.80;;;26.70;99.90;;;;;;4976181;28;20593;-68
2023/07/12 07:09:48;;;;;;;2.40;2.20;;;26.90;99.90;;;;;;4976110;28;20286;-68
2023/07/12 07:12:15;;;;;;;2.77;2.57;;;27.20;99.90;;;;;;4976463;28;20462;-70
2023/07/12 07:14:41;;;;;;;2.50;2.30;;;27.40;99.90;;;;;;4975727;28;20191;-72
2023/07/12 07:17:08;;;;;;;2.73;2.53;;;27.50;99.90;;;;;;4958922;28;20394;-68
2023/07/12 07:19:33;;;;;;;2.80;2.60;;;27.60;99.90;;;;;;4976406;28;20235;-70
2023/07/12 07:21:59;;;;;;;2.60;2.40;;;27.60;99.90;;;;;;4976344;28;20422;-71
2023/07/12 07:24:24;;;;;;;1.77;1.67;;;27.60;99.90;;;;;;4975600;28;20203;-71
2023/07/12 07:26:51;;;;;;;2.40;2.20;;;27.60;99.90;;;;;;4976007;28;20172;-72
2023/07/12 07:29:16;;;;;;;2.93;2.73;;;27.60;99.90;;;;;;4975984;28;20211;-72
2023/07/12 07:31:42;;;;;;;2.40;2.00;;;27.70;99.90;;;;;;4976247;28;20754;-72
2023/07/12 07:34:07;;;;;;;1.87;1.77;;;27.80;99.90;;;;;;4975474;28;20232;-72
2023/07/12 07:36:33;;;;;;;1.80;1.70;;;28.00;99.90;;;;;;4975472;28;20204;-70
2023/07/12 07:38:59;;;;;;;3.90;3.37;;;28.30;99.90;;;;;;4975231;28;20183;-70
2023/07/12 07:41:24;;;;;;;2.27;2.07;;;28.60;99.90;;;;;;4975783;28;20570;-71
2023/07/12 07:43:50;;;;;;;2.10;2.00;;;28.90;99.90;;;;;;4975725;28;20215;-68
2023/07/12 07:46:16;;;;;;;1.87;1.77;;;29.40;99.90;;;;;;4975734;28;20215;-69
2023/07/12 07:48:41;;;;;;;2.13;2.03;;;30.00;99.90;;;;;;4975814;28;20533;-69
2023/07/12 07:51:08;;;;;;;2.53;2.30;;;30.60;99.30;;;;;;4975690;28;20168;-69
2023/07/12 07:53:34;;;;;;;2.67;2.47;;;31.20;99.80;;;;;;4975286;28;20180;-69
2023/07/12 07:55:59;;;;;;;2.03;1.83;;;31.80;96.10;;;;;;4975638;28;20983;-68
2023/07/12 07:58:25;;;;;;;2.73;2.53;;;32.20;94.50;;;;;;4975549;28;20208;-72
2023/07/12 08:00:52;;;;;;;2.70;2.50;;;32.60;93.90;;;;;;4958421;28;20212;-71
2023/07/12 08:03:18;;;;;;;2.77;2.50;;;33.20;94.30;;;;;;4974794;28;20393;-70
2023/07/12 08:05:44;;;;;;;2.60;2.40;;;33.80;94.70;;;;;;4975290;28;20554;-72
2023/07/12 08:08:10;;;;;;;2.20;2.00;;;34.40;91.60;;;;;;4975320;28;20423;-67
2023/07/12 08:10:36;;;;;;;2.00;1.90;;;35.10;89.70;;;;;;4957826;28;20810;-68
2023/07/12 08:13:02;;;;;;;2.10;2.00;;;35.60;88.40;;;;;;4975278;28;20623;-67
2023/07/12 08:15:28;;;;;;;2.10;2.00;;;36.10;88.00;;;;;;4974890;28;20709;-70
2023/07/12 08:17:54;;;;;;;2.23;2.03;;;36.60;85.90;;;;;;4975315;28;20408;-70
2023/07/12 08:20:21;;;;;;;2.60;2.40;;;37.00;81.90;;;;;;4975144;28;20172;-76
2023/07/12 08:22:47;;;;;;;1.53;1.53;;;37.20;84.50;;;;;;4975196;28;20415;-70
2023/07/12 08:25:14;;;;;;;1.97;1.87;;;37.40;78.70;;;;;;4974508;28;20455;-74
2023/07/12 08:27:39;;;;;;;2.70;2.50;;;37.60;78.40;;;;;;4974978;28;20530;-70
2023/07/12 08:30:06;;;;;;;2.53;2.43;;;38.00;79.30;;;;;;4975201;28;20499;-71
2023/07/12 08:32:33;;;;;;;1.90;1.80;;;38.30;75.40;;;;;;4975012;28;20259;-69
2023/07/12 08:35:00;;;;;;;2.60;2.50;;;38.40;76.10;;;;;;4974345;28;20455;-70
2023/07/12 08:37:26;;;;;;;5.30;2.43;;;38.60;71.20;;;;;;4974988;28;20400;-69
2023/07/12 08:39:52;;;;;;;2.30;2.20;;;38.50;71.00;;;;;;4974815;28;20769;-71
2023/07/12 08:42:23;;;;;;;2.80;2.60;;;38.40;74.60;;;;;;4957441;28;20502;-69
2023/07/12 08:44:50;;;;;;;2.60;2.50;;;38.40;78.30;;;;;;4974507;28;20204;-73
2023/07/12 08:47:20;;;;;;;2.73;2.53;;;38.80;79.30;;;;;;4974572;28;20420;-71
2023/07/12 08:49:47;;;;;;;2.23;2.03;;;39.20;76.70;;;;;;4974554;28;20404;-69
2023/07/12 08:52:17;;;;;;;2.50;2.40;;;39.50;72.00;;;;;;4974634;28;20411;-71
2023/07/12 08:54:43;;;;;;;2.20;2.10;;;39.70;68.00;;;;;;4974166;28;21061;-72
2023/07/12 08:57:19;;;;;;;2.53;2.43;;;39.90;69.40;;;;;;4974325;28;20416;-73
2023/07/12 09:00:14;;;;;;;2.70;2.60;;;40.00;68.20;;;;;;4974634;28;20219;-77
2023/07/12 09:02:39;;;;;;;3.30;3.10;;;40.20;68.80;;;;;;4952797;28;20420;-69
2023/07/12 09:05:17;;;;;;;2.20;2.10;;;40.10;64.20;;;;;;4974117;28;20435;-76
2023/07/12 09:08:06;;;;;;;2.53;2.43;;;39.70;63.40;;;;;;4974459;28;20590;-70
2023/07/12 09:10:39;;;;;;;2.50;2.40;;;39.50;65.20;;;;;;4968893;28;20440;-75
2023/07/12 09:13:06;;;;;;;2.93;2.73;;;39.60;67.10;;;;;;4974696;28;20411;-70
2023/07/12 09:15:38;;;;;;;2.40;2.20;;;39.80;64.40;;;;;;4956698;28;20459;-74
2023/07/12 09:18:09;;;;;;;2.87;2.67;;;39.90;62.80;;;;;;4974683;28;20815;-71
2023/07/12 09:20:40;;;;;;;2.23;2.13;;;40.00;61.00;;;;;;4974622;28;20408;-74
2023/07/12 09:23:10;;;;;;;2.97;2.60;;;40.10;61.60;;;;;;4974154;28;20410;-70
2023/07/12 09:25:38;;;;;;;1.93;1.83;;;40.10;61.40;;;;;;4974007;28;20941;-69
2023/07/12 09:28:05;;;;;;;2.20;2.10;;;39.80;59.80;;;;;;4974384;28;20420;-70
2023/07/12 09:30:33;;;;;;;2.20;2.10;;;39.60;59.10;;;;;;4974291;28;20404;-76
2023/07/12 09:33:03;;;;;;;2.23;2.13;;;39.20;59.30;;;;;;4974491;28;20874;-75
2023/07/12 09:35:39;;;;;;;2.30;2.10;;;38.80;60.60;;;;;;4973629;28;20542;-76
2023/07/12 09:38:11;;;;;;;2.73;2.50;;;38.80;61.00;;;;;;4974334;28;20407;-70
2023/07/12 09:40:48;;;;;;;2.60;2.40;;;38.90;63.70;;;;;;4974287;28;20442;-72
2023/07/12 09:43:20;;;;;;;2.83;2.63;;;39.30;65.40;;;;;;4974087;28;20495;-73
2023/07/12 09:46:05;;;;;;;2.27;2.17;;;39.70;62.60;;;;;;4973925;28;20902;-70
2023/07/12 09:48:50;;;;;;;2.60;2.50;;;39.70;60.40;;;;;;4974010;28;20424;-72
2023/07/12 09:51:31;;;;;;;2.37;2.27;;;39.50;61.60;;;;;;4974120;28;20483;-70
2023/07/12 09:54:11;;;;;;;1.97;1.87;;;39.20;62.80;;;;;;4973763;28;20922;-71
2023/07/12 09:56:49;;;;;;;2.53;2.40;;;39.40;62.60;;;;;;4974007;28;20486;-76
2023/07/12 09:59:20;;;;;;;2.33;2.23;;;39.60;60.10;;;;;;4974080;28;20426;-69
2023/07/12 10:01:54;;;;;;;2.30;2.20;;;39.40;59.50;;;;;;4976415;28;20400;-69
2023/07/12 10:04:50;;;;;;;2.00;1.80;;;39.40;61.60;;;;;;4977139;28;20440;-69
2023/07/12 10:07:42;;;;;;;2.30;2.20;;;39.70;59.70;;;;;;4976829;28;20443;-74
2023/07/12 10:10:24;;;;;;;2.40;2.30;;;40.20;62.00;;;;;;4977774;28;20408;-71
2023/07/12 10:13:23;;;;;;;2.40;2.30;;;40.40;58.70;;;;;;4977438;28;20403;-74
2023/07/12 10:15:49;;;;;;;2.63;2.43;;;39.80;59.90;;;;;;4976726;28;20567;-69
2023/07/12 10:18:20;;;;;;;2.37;2.20;;;39.10;59.70;;;;;;4977258;28;20408;-73
2023/07/12 10:20:48;;;;;;;1.80;1.70;;;39.10;64.30;;;;;;4977536;28;20415;-69
2023/07/12 10:23:16;;;;;;;2.90;2.70;;;39.20;61.30;;;;;;4977145;28;20497;-69
2023/07/12 10:25:46;;;;;;;2.60;2.50;;;38.80;61.30;;;;;;4976984;28;20968;-69
2023/07/12 10:28:13;;;;;;;1.90;1.80;;;38.00;62.30;;;;;;4977132;28;20416;-71
2023/07/12 10:30:40;;;;;;;1.90;1.80;;;37.40;62.40;;;;;;4977324;28;20412;-68
2023/07/12 10:33:26;;;;;;;1.73;1.63;;;36.70;64.50;;;;;;4977112;28;20412;-69
2023/07/12 10:35:58;;;;;;;2.40;2.20;;;36.00;65.30;;;;;;4976761;28;20821;-70
2023/07/12 10:38:25;;;;;;;2.50;2.30;;;35.50;66.60;;;;;;4977526;28;20446;-70
2023/07/12 10:41:01;;;;;;;1.60;1.50;;;35.50;68.70;;;;;;4977189;28;20400;-68
2023/07/12 10:43:35;;;;;;;2.30;2.10;;;35.30;67.00;;;;;;4959172;28;20791;-69
2023/07/12 10:46:30;;;;;;;2.27;2.07;;;35.30;70.50;;;;;;4976940;28;20409;-69
2023/07/12 10:48:57;;;;;;;1.93;1.83;;;35.80;66.90;;;;;;4976269;28;20455;-68
2023/07/12 10:51:40;;;;;;;1.93;1.83;;;36.30;66.60;;;;;;4976941;28;20439;-67
2023/07/12 10:54:42;;;;;;;2.07;1.97;;;36.60;65.90;;;;;;4976327;28;20499;-69
2023/07/12 10:57:22;;;;;;;2.80;2.23;;;36.90;67.30;;;;;;4976182;28;20917;-67
2023/07/12 11:00:17;;;;;;;2.00;1.90;;;37.10;61.90;;;;;;4976722;28;20474;-64
2023/07/12 11:02:58;;;;;;;3.00;2.20;;;36.40;63.90;;;;;;4975811;28;20428;-66
2023/07/12 11:05:41;;;;;;;2.87;2.60;;;35.90;64.90;;;;;;4958600;28;20531;-69
2023/07/12 11:08:32;;;;;;;1.83;1.73;;;35.50;66.60;;;;;;4976768;28;20418;-66
2023/07/12 11:11:10;;;;;;;2.30;2.20;;;35.30;62.50;;;;;;4975682;28;20941;-66
2023/07/12 11:13:44;;;;;;;1.97;1.87;;;35.00;65.60;;;;;;4975258;28;20427;-66
2023/07/12 11:16:15;;;;;;;3.80;2.30;;;34.80;68.10;;;;;;4975590;28;20457;-68
2023/07/12 11:18:50;;;;;;;1.63;1.53;;;34.70;65.10;;;;;;4973502;28;20889;-67
2023/07/12 11:21:46;;;;;;;3.00;2.17;;;34.40;66.60;;;;;;4975592;28;20916;-67
2023/07/12 11:25:01;;;;;;;2.00;1.90;;;34.10;69.40;;;;;;4974348;28;20379;-66
2023/07/12 11:27:44;;;;;;;3.50;2.10;;;33.70;69.80;;;;;;4894893;28;20427;-65
2023/07/12 11:30:43;;;;;;;2.80;2.60;;;33.40;70.70;;;;;;4974348;28;20498;-66
2023/07/12 11:33:23;;;;;;;2.40;2.20;;;33.20;72.50;;;;;;4973902;28;20794;-65
2023/07/12 11:36:04;;;;;;;2.27;2.07;;;33.10;72.60;;;;;;4974904;28;20890;-66
2023/07/12 11:38:33;;;;;;;2.73;2.53;;;33.00;71.10;;;;;;4975889;28;20445;-66
2023/07/12 11:41:04;;;;;;;2.90;2.40;;;33.00;69.90;;;;;;4975148;28;20398;-67
2023/07/12 11:43:37;;;;;;;3.90;2.27;;;32.80;69.60;;;;;;4975249;28;20822;-68
2023/07/12 11:46:26;;;;;;;2.40;2.20;;;32.70;69.50;;;;;;4975448;28;20793;-70
2023/07/12 11:48:58;;;;;;;2.40;2.20;;;32.70;70.40;;;;;;4973932;28;20901;-68
2023/07/12 11:51:37;;;;;;;1.80;1.70;;;32.70;68.70;;;;;;4972960;28;20423;-65
2023/07/12 11:54:16;;;;;;;2.33;2.13;;;32.70;68.60;;;;;;4972504;28;20485;-67
2023/07/12 11:56:41;;;;;;;2.47;2.27;;;32.60;65.80;;;;;;4972938;28;20455;-66
2023/07/12 11:59:14;;;;;;;2.53;2.33;;;32.50;65.60;;;;;;4975312;28;20390;-69
2023/07/12 12:01:42;;;;;;;2.60;2.40;;;32.50;67.90;;;;;;4974812;28;20395;-70
2023/07/12 12:04:07;;;;;;;2.33;2.13;;;32.50;68.90;;;;;;4974403;28;20375;-69
2023/07/12 12:06:34;;;;;;;2.10;1.97;;;32.50;71.40;;;;;;4974685;28;20978;-70
2023/07/12 12:09:00;;;;;;;3.60;2.03;;;32.30;72.70;;;;;;4974944;28;20203;-68
2023/07/12 12:11:28;;;;;;;2.60;2.40;;;32.00;72.80;;;;;;4975445;28;20429;-70
2023/07/12 12:13:55;;;;;;;2.50;2.37;;;31.70;73.50;;;;;;4974840;28;20183;-70
2023/07/12 12:16:29;;;;;;;2.07;1.87;;;31.60;74.10;;;;;;4975027;28;20762;-71
2023/07/12 12:18:58;;;;;;;2.37;2.17;;;31.30;75.20;;;;;;4957582;28;20910;-68
2023/07/12 12:21:25;;;;;;;2.23;2.00;;;31.20;77.80;;;;;;4957914;28;20426;-71
2023/07/12 12:23:54;;;;;;;2.53;2.33;;;31.10;78.00;;;;;;4974371;28;20718;-73
2023/07/12 12:26:25;;;;;;;2.70;2.33;;;31.00;76.90;;;;;;4975123;28;20406;-74
2023/07/12 12:29:22;;;;;;;2.40;2.27;;;30.90;78.50;;;;;;4975021;28;20382;-74
2023/07/12 12:31:54;;;;;;;2.67;2.47;;;30.70;79.40;;;;;;4957678;28;20746;-75
2023/07/12 12:34:25;;;;;;;2.57;2.33;;;30.70;77.60;;;;;;4941481;28;21032;-74
2023/07/12 12:37:08;;;;;;;2.57;2.37;;;30.80;78.40;;;;;;4974866;28;20953;-75
2023/07/12 12:39:34;;;;;;;2.60;2.40;;;30.90;79.60;;;;;;4974624;28;20407;-73
2023/07/12 12:42:16;;;;;;;2.30;2.10;;;30.90;79.10;;;;;;4974451;28;20507;-77
2023/07/12 12:44:41;;;;;;;2.03;1.90;;;30.90;76.40;;;;;;4974312;28;20420;-76
2023/07/12 12:47:20;;;;;;;2.40;2.20;;;30.90;78.70;;;;;;4976694;28;20777;-79
2023/07/12 12:49:47;;;;;;;2.57;2.17;;;30.80;77.50;;;;;;4994041;28;20163;-76
2023/07/12 12:52:37;;;;;;;2.23;2.13;;;30.50;78.00;;;;;;4976191;28;20385;-75
2023/07/12 12:55:08;;;;;;;1.97;1.87;;;30.20;80.50;;;;;;4993718;28;20890;-78
2023/07/12 12:57:35;;;;;;;2.60;2.47;;;30.10;80.00;;;;;;4994046;28;20403;-75
2023/07/12 13:00:14;;;;;;;2.23;2.03;;;30.10;80.20;;;;;;4994426;28;20403;-75
2023/07/12 13:02:40;;;;;;;1.93;1.83;;;30.10;82.60;;;;;;4994351;28;20427;-74
2023/07/12 13:05:06;;;;;;;2.07;1.97;;;30.10;80.70;;;;;;4993763;28;20421;-75
2023/07/12 13:07:39;;;;;;;2.20;2.10;;;30.30;80.30;;;;;;4993969;28;20798;-74
2023/07/12 13:10:07;;;;;;;1.93;1.83;;;30.30;81.90;;;;;;4994103;28;20179;-76
2023/07/12 13:12:34;;;;;;;3.10;2.90;;;30.40;79.40;;;;;;4993751;28;20467;-74
2023/07/12 13:15:01;;;;;;;2.03;1.93;;;30.40;79.90;;;;;;4993483;28;20586;-76
2023/07/12 13:17:28;;;;;;;5.63;2.33;;;30.30;79.50;;;;;;4994089;28;20827;-73
2023/07/12 13:19:54;;;;;;;2.60;2.27;;;30.10;80.00;;;;;;4993926;28;20460;-81
2023/07/12 13:22:23;;;;;;;2.40;2.20;;;30.00;80.50;;;;;;4993965;28;20411;-76
2023/07/12 13:24:52;;;;;;;2.13;2.00;;;29.90;81.40;;;;;;4993502;28;20412;-74
2023/07/12 13:27:33;;;;;;;2.47;2.27;;;29.90;81.80;;;;;;4993957;28;20788;-77
2023/07/12 13:30:00;;;;;;;2.87;2.67;;;30.00;83.70;;;;;;4993809;28;20898;-79
2023/07/12 13:32:26;;;;;;;2.10;1.90;;;30.00;80.90;;;;;;4993837;28;20401;-75
2023/07/12 13:34:53;;;;;;;2.37;2.17;;;30.10;80.60;;;;;;4976918;28;20437;-76
2023/07/12 13:37:29;;;;;;;2.87;2.30;;;30.10;81.30;;;;;;4997556;28;20387;-76
2023/07/12 13:39:56;;;;;;;2.53;2.33;;;30.10;81.60;;;;;;4979965;28;20418;-76
2023/07/12 13:42:23;;;;;;;5.23;4.40;;;30.00;81.10;;;;;;4997433;28;20399;-75
2023/07/12 13:44:50;;;;;;;2.90;2.60;;;29.80;81.80;;;;;;4997235;28;20397;-76
2023/07/12 13:47:21;;;;;;;2.40;2.20;;;29.70;81.60;;;;;;4997519;28;20407;-76
2023/07/12 13:49:47;;;;;;;3.17;2.40;;;29.60;82.60;;;;;;4997403;28;20892;-76
2023/07/12 13:52:19;;;;;;;2.40;2.30;;;29.50;82.70;;;;;;4997522;28;20378;-78
2023/07/12 13:54:46;;;;;;;2.10;1.97;;;29.50;82.40;;;;;;4996771;28;20919;-75
2023/07/12 13:57:14;;;;;;;2.30;2.20;;;29.50;84.40;;;;;;4997266;28;20900;-76
2023/07/12 13:59:40;;;;;;;2.93;2.20;;;29.50;82.70;;;;;;4997297;28;20444;-77
2023/07/12 14:02:22;;;;;;;4.07;3.67;;;29.50;82.50;;;;;;4997213;28;20406;-76
2023/07/12 14:04:55;;;;;;;1.70;1.60;;;29.50;83.20;;;;;;4996529;28;20972;-76
2023/07/12 14:07:33;;;;;;;2.83;2.40;;;29.60;83.00;;;;;;4996785;28;20388;-75
2023/07/12 14:09:59;;;;;;;2.47;2.27;;;29.60;82.70;;;;;;4997182;28;20995;-74
2023/07/12 14:12:27;;;;;;;2.43;2.30;;;29.50;81.80;;;;;;4997063;28;20472;-72
2023/07/12 14:14:53;;;;;;;2.07;1.97;;;29.50;82.80;;;;;;4996388;28;20184;-76
2023/07/12 14:17:21;;;;;;;2.00;1.90;;;29.50;84.00;;;;;;4979400;28;20557;-74
2023/07/12 14:19:52;;;;;;;1.90;1.80;;;29.50;83.00;;;;;;4979380;28;20440;-78
2023/07/12 14:22:20;;;;;;;2.80;1.83;;;29.60;82.90;;;;;;4979508;28;20423;-74
2023/07/12 14:24:47;;;;;;;3.47;3.17;;;29.60;82.70;;;;;;4996299;28;20437;-74
2023/07/12 14:27:22;;;;;;;1.90;1.80;;;29.50;82.10;;;;;;4996762;28;20486;-79
2023/07/12 14:29:50;;;;;;;2.27;2.10;;;29.40;84.10;;;;;;4996882;28;20745;-73
2023/07/12 14:32:19;;;;;;;2.57;2.40;;;29.40;83.40;;;;;;4996524;28;20798;-76
2023/07/12 14:34:45;;;;;;;2.03;1.93;;;29.30;82.60;;;;;;4996301;28;20434;-76
2023/07/12 14:37:15;;;;;;;1.90;1.80;;;29.20;81.90;;;;;;4996796;28;20726;-78
2023/07/12 14:39:41;;;;;;;2.00;1.80;;;29.10;82.80;;;;;;4996676;28;20167;-76
2023/07/12 14:42:15;;;;;;;10.90;2.23;;;29.10;83.40;;;;;;4996370;28;20920;-75
2023/07/12 14:44:41;;;;;;;2.17;1.97;;;29.10;82.70;;;;;;4978715;28;20936;-78
2023/07/12 14:47:14;;;;;;;2.60;2.40;;;29.10;83.90;;;;;;4995795;28;20424;-76
2023/07/12 14:49:41;;;;;;;3.43;2.20;;;29.20;82.80;;;;;;4996649;28;20812;-77
2023/07/12 14:52:25;;;;;;;2.70;2.30;;;29.30;82.90;;;;;;4978864;28;20452;-75
2023/07/12 14:54:53;;;;;;;1.87;1.60;;;29.20;82.10;;;;;;4995943;28;20404;-75
2023/07/12 14:57:19;;;;;;;1.77;1.67;;;29.10;81.90;;;;;;4979047;28;20779;-74
2023/07/12 14:59:47;;;;;;;1.57;1.47;;;28.90;81.10;;;;;;4996099;28;20487;-78
2023/07/12 15:02:30;;;;;;;1.43;1.43;;;28.90;83.30;;;;;;4978924;28;20787;-75
2023/07/12 15:04:58;;;;;;;2.60;1.87;;;28.90;83.30;;;;;;4995767;28;20409;-78
2023/07/12 15:07:31;;;;;;;1.80;1.70;;;28.90;83.20;;;;;;4996456;28;20832;-77
2023/07/12 15:09:59;;;;;;;2.50;1.90;;;28.90;82.70;;;;;;4995972;28;20389;-76
2023/07/12 15:12:30;;;;;;;1.70;1.60;;;29.00;83.40;;;;;;4996132;28;20446;-74
2023/07/12 15:14:57;;;;;;;1.93;1.50;;;29.10;81.90;;;;;;4995418;28;20526;-73
2023/07/12 15:17:23;;;;;;;1.60;1.50;;;29.00;80.20;;;;;;4996051;28;20423;-72
2023/07/12 15:19:49;;;;;;;2.77;1.77;;;29.00;80.40;;;;;;4995848;28;20385;-77
2023/07/12 15:22:15;;;;;;;1.27;1.17;;;29.00;81.30;;;;;;4995631;28;20434;-74
2023/07/12 15:24:41;;;;;;;1.90;1.80;;;29.00;79.80;;;;;;4995354;28;20454;-76
2023/07/12 15:27:12;;;;;;;1.70;1.60;;;28.90;81.60;;;;;;4978518;28;20410;-79
2023/07/12 15:29:38;;;;;;;2.33;2.17;;;28.80;81.10;;;;;;4995892;28;20443;-80
2023/07/12 15:32:10;;;;;;;1.93;1.83;;;28.80;82.10;;;;;;4995785;28;20381;-74
2023/07/12 15:34:35;;;;;;;3.40;1.90;;;28.70;81.80;;;;;;4995418;28;20228;-72
2023/07/12 15:37:01;;;;;;;2.23;1.90;;;28.60;82.00;;;;;;4995268;28;20532;-75
2023/07/12 15:39:27;;;;;;;1.63;1.53;;;28.70;82.40;;;;;;4962204;28;20637;-75
2023/07/12 15:41:53;;;;;;;1.50;1.40;;;28.70;82.50;;;;;;4995692;28;20497;-73
2023/07/12 15:44:18;;;;;;;2.13;1.73;;;28.70;84.20;;;;;;4977481;28;20210;-76
2023/07/12 15:46:44;;;;;;;2.40;2.20;;;28.60;82.50;;;;;;4995591;28;20182;-80
2023/07/12 15:49:09;;;;;;;2.10;2.00;;;28.70;81.90;;;;;;4995306;28;20178;-73
2023/07/12 15:51:48;;;;;;;2.40;1.53;;;28.60;82.20;;;;;;4995572;28;20172;-79
2023/07/12 15:54:26;;;;;;;3.50;1.77;;;28.50;82.10;;;;;;4978285;28;20258;-75
2023/07/12 15:56:51;;;;;;;2.20;2.00;;;28.50;83.30;;;;;;4995157;28;20461;-77
2023/07/12 15:59:18;;;;;;;1.70;1.60;;;28.70;82.60;;;;;;4994345;28;20492;-75
2023/07/12 16:01:45;;;;;;;1.70;1.60;;;28.70;82.50;;;;;;4994979;28;20217;-79
2023/07/12 16:04:16;;;;;;;1.33;1.33;;;28.80;83.20;;;;;;4977268;28;20390;-73
2023/07/12 16:06:43;;;;;;;2.07;1.80;;;28.80;82.60;;;;;;4994957;28;20426;-77
2023/07/12 16:09:11;;;;;;;2.90;2.70;;;28.80;82.50;;;;;;4995284;28;20425;-73
2023/07/12 16:11:43;;;;;;;3.77;2.37;;;28.80;80.90;;;;;;4994812;28;20766;-79
2023/07/12 16:14:17;;;;;;;1.60;1.50;;;28.80;80.40;;;;;;4994800;28;20411;-72
2023/07/12 16:16:42;;;;;;;1.60;1.50;;;28.70;80.00;;;;;;4977402;28;20429;-77
2023/07/12 16:19:10;;;;;;;2.60;2.40;;;28.50;80.00;;;;;;4977473;28;20825;-74
2023/07/12 16:21:38;;;;;;;7.90;6.33;;;28.40;81.10;;;;;;4977430;28;20225;-77
2023/07/12 16:24:04;;;;;;;4.70;4.20;;;28.30;81.80;;;;;;4976650;28;20389;-75
2023/07/12 16:26:32;;;;;;;2.27;2.07;;;28.20;80.80;;;;;;4994479;28;20377;-77
2023/07/12 16:28:59;;;;;;;6.57;5.60;;;28.20;80.50;;;;;;4994531;28;20393;-74
2023/07/12 16:31:37;;;;;;;6.67;5.53;;;28.10;80.40;;;;;;4994801;28;20433;-78
2023/07/12 16:34:13;;;;;;;3.90;2.53;;;28.00;80.20;;;;;;4976507;28;20402;-78
2023/07/12 16:36:39;;;;;;;6.33;5.60;;;27.90;80.40;;;;;;4994602;28;20428;-78
2023/07/12 16:39:05;;;;;;;1.43;1.43;;;27.90;80.20;;;;;;4994319;28;20413;-74
2023/07/12 16:41:31;;;;;;;3.60;3.30;;;27.80;79.90;;;;;;4976877;28;20176;-78
2023/07/12 16:43:58;;;;;;;2.70;2.50;;;27.70;79.60;;;;;;4993818;28;20534;-73
2023/07/12 16:46:24;;;;;;;3.00;2.53;;;27.60;80.90;;;;;;4994467;28;20205;-79
2023/07/12 16:48:51;;;;;;;1.63;1.53;;;27.60;80.80;;;;;;4994064;28;20452;-72
2023/07/12 16:51:25;;;;;;;2.93;2.50;;;27.50;80.60;;;;;;4994126;28;20389;-72
2023/07/12 16:53:51;;;;;;;3.43;2.00;;;27.40;81.30;;;;;;4993786;28;20460;-79
2023/07/12 16:56:19;;;;;;;2.73;1.20;;;27.40;81.50;;;;;;4976558;28;20813;-70
2023/07/12 16:58:48;;;;;;;1.57;1.30;;;27.30;81.20;;;;;;4994182;28;20415;-70
2023/07/12 17:01:21;;;;;;;2.00;1.73;;;27.30;84.00;;;;;;4994003;28;20481;-69
2023/07/12 17:03:48;;;;;;;1.47;1.37;;;27.30;81.60;;;;;;4993954;28;20589;-69
2023/07/12 17:06:15;;;;;;;2.83;1.60;;;27.10;80.50;;;;;;4993732;28;20533;-69